Time;durP1;ratioP1;P1;durP2;ratioP2;P2;SDS_P1;SDS_P2;PMS_P1;PMS_P2;Temp;Humidity;BMP_temperature;BMP_pressure;BME280_temperature;BME280_humidity;BME280_pressure;Samples;Min_cycle;Max_cycle;Signal;HPM_P1;HPM_P2
2024/04/25 00:00:52;;;;;;;3.20;2.28;;;-1.40;99.90;;;;;;22655722;26;20031;-47
2024/04/25 00:10:56;;;;;;;5.88;2.33;;;-1.30;99.90;;;;;;22653406;26;20006;-47
2024/04/25 00:20:59;;;;;;;3.50;2.00;;;-1.40;99.90;;;;;;22708556;26;20026;-45
2024/04/25 00:31:01;;;;;;;4.22;2.40;;;-1.50;99.90;;;;;;22708983;26;20029;-43
2024/04/25 00:41:03;;;;;;;3.25;2.08;;;-1.70;99.90;;;;;;22657796;26;20022;-42
2024/04/25 00:51:07;;;;;;;5.07;2.40;;;-1.80;99.90;;;;;;22625179;26;20022;-43
2024/04/25 01:01:11;;;;;;;3.33;2.10;;;-1.90;99.90;;;;;;22706629;26;20045;-44
2024/04/25 01:11:14;;;;;;;3.50;2.10;;;-1.90;99.90;;;;;;22705061;26;20442;-43
2024/04/25 01:21:16;;;;;;;3.00;2.00;;;-1.80;99.90;;;;;;22705597;26;20030;-43
2024/04/25 01:31:18;;;;;;;5.25;2.13;;;-1.80;99.90;;;;;;22609391;26;20093;-44
2024/04/25 01:41:20;;;;;;;4.10;2.05;;;-1.90;99.90;;;;;;22653990;26;20365;-43
2024/04/25 01:51:22;;;;;;;2.78;1.70;;;-2.00;99.90;;;;;;22652883;26;20025;-43
2024/04/25 02:01:24;;;;;;;2.58;1.40;;;-2.00;99.90;;;;;;22640664;26;20035;-42
2024/04/25 02:11:25;;;;;;;2.45;1.45;;;-2.10;99.90;;;;;;22653409;26;20073;-43
2024/04/25 02:31:48;;;;;;;2.60;1.52;;;-2.40;99.90;;;;;;22661774;26;20054;-43
2024/04/25 02:41:50;;;;;;;3.00;1.70;;;-2.50;99.90;;;;;;22647537;26;20070;-42
2024/04/25 02:51:51;;;;;;;2.72;1.70;;;-2.50;99.90;;;;;;22581740;26;20030;-42
2024/04/25 03:01:56;;;;;;;2.08;1.50;;;-2.70;99.90;;;;;;22702644;26;20034;-43
2024/04/25 03:11:58;;;;;;;2.90;1.80;;;-2.80;99.90;;;;;;22640785;26;20035;-45
2024/04/25 03:21:59;;;;;;;3.22;2.10;;;-2.70;99.90;;;;;;22597316;26;20413;-42
2024/04/25 03:32:01;;;;;;;3.67;1.58;;;-2.60;99.90;;;;;;22622756;26;20078;-44
2024/04/25 03:42:04;;;;;;;2.85;0.82;;;-2.50;99.90;;;;;;22672132;26;20030;-44
2024/04/25 03:52:06;;;;;;;2.80;0.88;;;-2.80;99.90;;;;;;22660923;26;20029;-44
2024/04/25 04:02:08;;;;;;;1.33;0.70;;;-3.00;99.90;;;;;;22636666;26;20496;-43
2024/04/25 04:12:10;;;;;;;1.38;0.70;;;-3.00;99.90;;;;;;22670342;26;20030;-44
2024/04/25 04:22:12;;;;;;;1.58;0.60;;;-3.10;99.90;;;;;;22708822;26;20331;-44
2024/04/25 04:32:14;;;;;;;1.88;1.23;;;-3.20;99.90;;;;;;22675279;26;20036;-44
2024/04/25 04:42:15;;;;;;;1.58;0.70;;;-3.30;99.90;;;;;;22572938;26;20104;-42
2024/04/25 04:52:19;;;;;;;2.90;1.02;;;-3.20;99.90;;;;;;22497174;26;20031;-42
2024/04/25 05:02:20;;;;;;;2.10;1.00;;;-3.10;99.90;;;;;;22556152;26;20031;-42
2024/04/25 05:12:25;;;;;;;1.33;0.80;;;-2.90;99.90;;;;;;22567051;26;20039;-43
2024/04/25 05:22:27;;;;;;;1.92;1.00;;;-2.80;99.90;;;;;;22587943;26;20125;-44
2024/04/25 05:32:28;;;;;;;2.15;1.00;;;-2.70;99.90;;;;;;22551294;26;20034;-43
2024/04/25 05:42:33;;;;;;;1.40;0.85;;;-2.60;99.90;;;;;;22266229;26;20084;-44
2024/04/25 05:52:40;;;;;;;1.10;0.70;;;-2.40;99.90;;;;;;22289902;26;20013;-44
2024/04/25 06:02:42;;;;;;;3.88;1.35;;;-2.30;99.90;;;;;;22334025;26;20051;-42
2024/04/25 06:12:44;;;;;;;3.40;2.00;;;-2.10;99.90;;;;;;22306497;26;20011;-44
2024/04/25 06:22:48;;;;;;;3.78;2.33;;;-1.90;99.90;;;;;;22520712;26;20026;-42
2024/04/25 06:32:50;;;;;;;3.15;1.83;;;-1.60;99.90;;;;;;22544749;26;20066;-45
2024/04/25 06:42:55;;;;;;;3.78;2.33;;;0.30;99.90;;;;;;22532644;26;20035;-45
2024/04/25 06:52:57;;;;;;;2.38;1.83;;;2.60;99.90;;;;;;22566778;26;20126;-45
2024/04/25 07:02:59;;;;;;;2.63;2.03;;;4.50;99.90;;;;;;22560159;26;20097;-43
2024/04/25 07:13:01;;;;;;;2.20;1.77;;;5.00;99.90;;;;;;22576510;26;20485;-43
2024/04/25 07:23:03;;;;;;;2.75;2.20;;;6.20;99.90;;;;;;22190826;26;20001;-43
2024/04/25 07:33:05;;;;;;;2.88;2.38;;;7.30;99.90;;;;;;22174839;26;20004;-43
2024/04/25 07:43:08;;;;;;;2.30;1.90;;;6.20;99.90;;;;;;22134307;26;20015;-44
2024/04/25 07:53:10;;;;;;;2.10;1.30;;;7.80;99.90;;;;;;22509220;26;20120;-44
2024/04/25 08:03:12;;;;;;;1.88;1.38;;;8.50;98.30;;;;;;22524545;26;20002;-46
2024/04/25 08:13:18;;;;;;;1.88;1.38;;;9.20;99.50;;;;;;22557328;26;20442;-45
2024/04/25 08:23:20;;;;;;;1.80;1.42;;;9.60;98.10;;;;;;22558008;26;20042;-45
2024/04/25 08:33:22;;;;;;;2.10;1.50;;;10.00;97.20;;;;;;22555193;26;20570;-45
2024/04/25 08:43:24;;;;;;;1.35;1.20;;;10.40;97.10;;;;;;22558797;26;20027;-48
2024/04/25 08:53:28;;;;;;;1.90;1.55;;;10.00;96.40;;;;;;22550647;26;20067;-42
2024/04/25 09:03:30;;;;;;;2.33;1.88;;;11.00;98.40;;;;;;22545775;26;20495;-40
2024/04/25 09:13:32;;;;;;;1.70;1.52;;;12.30;96.60;;;;;;22537170;26;20058;-38
2024/04/25 09:23:40;;;;;;;4.10;2.58;;;10.40;94.90;;;;;;22528695;26;20066;-37
2024/04/25 09:33:42;;;;;;;2.70;2.30;;;9.50;97.40;;;;;;22550982;26;20009;-38
2024/04/25 09:43:44;;;;;;;3.10;2.80;;;8.80;99.00;;;;;;22545375;26;20097;-38
2024/04/25 09:53:53;;;;;;;4.93;3.95;;;7.60;99.90;;;;;;22548586;26;20031;-39
2024/04/25 10:03:57;;;;;;;6.45;5.13;;;5.90;99.90;;;;;;22546312;26;20439;-38
2024/04/25 10:13:59;;;;;;;5.45;4.35;;;4.90;99.90;;;;;;22549219;26;20121;-38
2024/04/25 10:24:11;;;;;;;5.28;4.03;;;5.20;99.90;;;;;;22550436;26;20023;-38
2024/04/25 10:34:13;;;;;;;6.22;4.63;;;5.60;99.90;;;;;;22549131;26;20561;-38
2024/04/25 10:44:15;;;;;;;4.75;3.92;;;5.80;99.90;;;;;;22549548;26;20030;-38
2024/04/25 10:54:16;;;;;;;4.88;3.90;;;5.90;99.90;;;;;;22544483;26;20026;-41
2024/04/25 11:04:18;;;;;;;7.13;5.53;;;8.40;99.90;;;;;;22541428;26;20484;-39
2024/04/25 11:14:22;;;;;;;6.10;5.20;;;8.70;99.90;;;;;;22547733;26;20026;-39
2024/04/25 11:24:24;;;;;;;6.20;5.10;;;9.40;99.90;;;;;;22554072;26;20093;-38
2024/04/25 11:34:26;;;;;;;3.88;3.15;;;8.80;99.90;;;;;;22560592;26;20092;-38
2024/04/25 11:44:30;;;;;;;2.33;1.70;;;7.40;99.90;;;;;;22564804;26;20097;-38
2024/04/25 11:54:34;;;;;;;2.97;2.03;;;7.20;99.90;;;;;;22559626;26;20035;-38
2024/04/25 12:04:36;;;;;;;2.80;1.85;;;6.10;99.90;;;;;;22529307;26;20027;-38
2024/04/25 12:14:38;;;;;;;3.03;2.25;;;5.90;99.90;;;;;;22558542;26;20077;-38
2024/04/25 12:24:39;;;;;;;3.38;2.47;;;7.20;99.90;;;;;;22562953;26;20070;-38
2024/04/25 12:34:41;;;;;;;4.78;3.63;;;7.50;99.90;;;;;;22556699;26;20042;-38
2024/04/25 12:44:43;;;;;;;5.65;4.38;;;6.00;99.90;;;;;;22586937;26;20027;-38
2024/04/25 12:54:48;;;;;;;7.07;5.25;;;5.00;99.90;;;;;;22558734;26;20066;-38
2024/04/25 13:04:50;;;;;;;6.03;4.30;;;4.90;99.90;;;;;;22554207;26;20027;-39
2024/04/25 13:14:51;;;;;;;7.70;5.30;;;4.90;99.90;;;;;;22552532;26;20039;-38
2024/04/25 13:24:53;;;;;;;6.90;5.40;;;4.50;99.90;;;;;;22561961;26;20027;-39
2024/04/25 13:34:58;;;;;;;6.85;5.43;;;5.50;99.90;;;;;;22544334;26;20340;-38
2024/04/25 13:45:00;;;;;;;6.18;5.20;;;6.30;99.90;;;;;;22548478;26;20030;-44
2024/04/25 13:55:02;;;;;;;7.10;5.57;;;5.60;99.90;;;;;;22555615;26;20484;-45
2024/04/25 14:05:04;;;;;;;7.70;5.82;;;5.00;99.90;;;;;;22550339;26;20029;-44
2024/04/25 14:15:07;;;;;;;6.53;4.97;;;5.00;99.90;;;;;;22548811;26;20035;-44
2024/04/25 14:35:32;;;;;;;4.80;4.07;;;5.90;99.90;;;;;;22541893;26;20030;-44
2024/04/25 14:45:34;;;;;;;5.32;4.45;;;5.90;99.90;;;;;;22541478;26;20337;-46
2024/04/25 14:55:36;;;;;;;7.45;5.35;;;5.30;99.90;;;;;;22548549;26;20027;-44
2024/04/25 15:05:38;;;;;;;5.75;4.65;;;5.00;99.90;;;;;;22560667;26;20027;-39
2024/04/25 15:15:40;;;;;;;7.25;4.93;;;5.60;99.90;;;;;;22555410;26;20046;-46
2024/04/25 15:25:42;;;;;;;5.32;3.63;;;6.20;99.90;;;;;;22533647;26;20073;-46
2024/04/25 15:35:43;;;;;;;4.70;3.80;;;6.30;99.90;;;;;;22562116;26;20038;-46
2024/04/25 15:45:45;;;;;;;5.95;4.45;;;6.10;99.90;;;;;;22558233;26;20558;-44
2024/04/25 15:55:47;;;;;;;4.20;3.60;;;5.80;99.90;;;;;;22561495;26;20027;-44
2024/04/25 16:05:49;;;;;;;5.20;4.00;;;5.50;99.90;;;;;;22557822;26;20084;-45
2024/04/25 16:15:51;;;;;;;6.65;4.60;;;5.00;99.90;;;;;;22550476;26;19998;-44
2024/04/25 16:25:57;;;;;;;6.25;4.38;;;4.70;99.90;;;;;;22552937;26;20092;-44
2024/04/25 16:36:05;;;;;;;5.07;4.05;;;4.10;99.90;;;;;;22577009;26;20034;-43
2024/04/25 16:46:08;;;;;;;5.65;4.32;;;3.60;99.90;;;;;;22554811;26;20035;-43
2024/04/25 16:56:10;;;;;;;5.82;4.20;;;3.20;99.90;;;;;;22654383;26;20087;-44
2024/04/25 17:06:13;;;;;;;6.65;4.80;;;3.10;99.90;;;;;;22596067;26;20105;-46
2024/04/25 17:16:15;;;;;;;6.57;5.03;;;3.00;99.90;;;;;;22555938;26;20038;-45
2024/04/25 17:26:23;;;;;;;6.93;5.20;;;2.90;99.90;;;;;;22587479;26;20074;-44
2024/04/25 17:36:25;;;;;;;5.75;4.30;;;2.90;99.90;;;;;;22581669;26;20055;-44
2024/04/25 17:46:27;;;;;;;7.25;5.18;;;2.70;99.90;;;;;;22560266;26;20439;-44
2024/04/25 17:56:29;;;;;;;6.82;5.18;;;2.60;99.90;;;;;;22561146;26;20132;-44
2024/04/25 18:06:31;;;;;;;6.40;4.90;;;2.50;99.90;;;;;;22581066;26;20030;-46
2024/04/25 18:16:32;;;;;;;7.30;5.30;;;2.50;99.90;;;;;;22702238;26;20485;-37
2024/04/25 18:26:34;;;;;;;8.25;5.82;;;2.30;99.90;;;;;;22603527;26;20415;-37
2024/04/25 18:36:36;;;;;;;8.73;5.45;;;2.00;99.90;;;;;;22574007;26;20096;-37
2024/04/25 18:46:38;;;;;;;6.70;4.65;;;1.80;99.90;;;;;;22561524;26;20038;-38
2024/04/25 18:56:40;;;;;;;7.30;5.43;;;1.70;99.90;;;;;;22593444;26;20078;-38
2024/04/25 19:06:42;;;;;;;10.30;7.63;;;1.40;99.90;;;;;;22572115;26;20513;-47
2024/04/25 19:16:45;;;;;;;10.38;7.03;;;1.20;99.90;;;;;;22530968;26;20030;-46
2024/04/25 19:26:51;;;;;;;13.45;8.85;;;1.00;99.90;;;;;;22637873;26;20026;-46
2024/04/25 19:36:54;;;;;;;9.38;6.38;;;0.90;99.90;;;;;;22710530;26;20029;-47
2024/04/25 19:46:57;;;;;;;10.73;7.50;;;0.80;99.90;;;;;;22701443;26;20979;-47
2024/04/25 19:57:02;;;;;;;10.80;7.88;;;0.80;99.90;;;;;;22607887;26;20007;-45
2024/04/25 20:07:08;;;;;;;8.55;5.97;;;1.00;99.90;;;;;;22565565;26;20030;-46
2024/04/25 20:17:12;;;;;;;6.97;4.85;;;1.20;99.90;;;;;;22561276;26;20373;-44
2024/04/25 20:27:15;;;;;;;6.68;4.10;;;1.40;99.90;;;;;;22673131;26;20152;-44
2024/04/25 20:37:17;;;;;;;6.65;4.50;;;1.50;99.90;;;;;;22708283;26;20049;-45
2024/04/25 20:47:20;;;;;;;7.03;4.00;;;1.60;99.90;;;;;;22649109;26;20023;-44
2024/04/25 20:57:22;;;;;;;6.22;4.35;;;1.70;99.90;;;;;;22671665;26;20092;-46
2024/04/25 21:07:24;;;;;;;4.88;3.65;;;1.80;99.90;;;;;;22706586;26;20096;-44
2024/04/25 21:17:26;;;;;;;6.40;4.32;;;1.80;99.90;;;;;;22706525;26;20068;-44
2024/04/25 21:27:28;;;;;;;6.70;4.60;;;1.70;99.90;;;;;;22673336;26;20025;-44
2024/04/25 21:37:32;;;;;;;6.32;5.00;;;1.60;99.90;;;;;;22659196;26;20387;-37
2024/04/25 21:47:37;;;;;;;6.90;4.97;;;1.50;99.90;;;;;;22686866;26;20010;-37
2024/04/25 21:57:39;;;;;;;6.60;4.93;;;1.40;99.90;;;;;;22673915;26;20092;-37
2024/04/25 22:07:41;;;;;;;6.95;4.45;;;1.40;99.90;;;;;;22670673;26;20030;-37
2024/04/25 22:17:43;;;;;;;6.57;3.95;;;1.40;99.90;;;;;;22702449;26;20136;-37
2024/04/25 22:27:45;;;;;;;5.25;3.83;;;1.40;99.90;;;;;;22701516;26;20022;-38
2024/04/25 22:37:49;;;;;;;4.68;3.75;;;1.60;99.90;;;;;;22655017;26;20116;-37
2024/04/25 22:47:51;;;;;;;6.28;3.78;;;1.60;99.90;;;;;;22677300;26;20030;-37
2024/04/25 22:57:57;;;;;;;5.03;3.67;;;1.70;99.90;;;;;;22673462;26;20030;-37
2024/04/25 23:07:58;;;;;;;7.65;4.07;;;1.60;99.90;;;;;;22698179;26;20033;-37
2024/04/25 23:18:00;;;;;;;7.13;3.70;;;1.80;99.90;;;;;;22668351;26;20095;-37
2024/04/25 23:28:02;;;;;;;5.28;3.78;;;1.80;99.90;;;;;;22713089;26;20111;-37
2024/04/25 23:38:04;;;;;;;6.22;4.10;;;1.70;99.90;;;;;;22633712;26;20030;-37
2024/04/25 23:48:06;;;;;;;5.10;3.60;;;1.80;99.90;;;;;;22685702;26;20031;-43
2024/04/25 23:58:11;;;;;;;5.32;3.38;;;1.90;99.90;;;;;;22688557;26;20026;-44
